createdAt,value
2023-03-11T00:04:10.587Z,59.95
2023-03-11T00:14:13.073Z,60.01
2023-03-11T00:24:16.830Z,60.34
2023-03-11T00:34:19.417Z,60.80
2023-03-11T00:44:23.327Z,61.10
2023-03-11T00:54:25.819Z,61.14
2023-03-11T01:04:29.681Z,60.96
2023-03-11T01:14:32.126Z,61.24
2023-03-11T01:24:35.916Z,61.78
2023-03-11T01:34:38.416Z,61.66
2023-03-11T01:44:42.199Z,61.96
2023-03-11T01:54:44.756Z,62.96
2023-03-11T02:04:49.108Z,62.87
2023-03-11T02:14:53.915Z,61.21
2023-03-11T02:25:00.908Z,61.08
2023-03-11T02:35:05.127Z,60.20
2023-03-11T02:45:09.498Z,59.64
2023-03-11T02:55:14.509Z,59.12
2023-03-11T03:05:17.102Z,59.18
2023-03-11T03:15:21.512Z,59.31
2023-03-11T03:25:24.056Z,57.99
2023-03-11T03:35:27.923Z,58.36
2023-03-11T03:45:30.403Z,57.91
2023-03-11T03:55:34.253Z,58.64
2023-03-11T04:05:36.717Z,58.25
2023-03-11T04:15:40.594Z,58.12
2023-03-11T04:25:43.127Z,58.49
2023-03-11T04:35:47.015Z,58.87
2023-03-11T04:45:51.126Z,59.55
2023-03-11T04:55:54.940Z,58.84
2023-03-11T05:05:57.534Z,58.77
2023-03-11T05:16:01.383Z,59.34
2023-03-11T05:26:03.895Z,59.12
2023-03-11T05:36:09.274Z,58.48
2023-03-11T05:46:11.911Z,59.23
2023-03-11T05:56:15.856Z,58.73
2023-03-11T06:06:18.539Z,59.11
2023-03-11T06:16:22.553Z,59.69
2023-03-11T06:26:25.390Z,59.78
2023-03-11T06:36:29.162Z,59.87
2023-03-11T06:46:31.640Z,59.99
2023-03-11T06:56:35.539Z,59.77
2023-03-11T07:06:38.007Z,59.10
2023-03-11T07:16:41.901Z,59.30
2023-03-11T07:26:44.722Z,58.48
2023-03-11T07:36:48.764Z,58.13
2023-03-11T07:46:51.371Z,57.48
2023-03-11T07:56:55.205Z,57.73
2023-03-11T08:06:58.008Z,58.13
2023-03-11T08:17:01.825Z,58.00
2023-03-11T08:27:04.404Z,56.57
2023-03-11T08:37:08.246Z,56.72
2023-03-11T08:47:10.847Z,56.03
2023-03-11T08:57:14.709Z,55.11
2023-03-11T09:07:17.801Z,54.23
2023-03-11T09:17:21.750Z,53.39
2023-03-11T09:27:24.395Z,55.01
2023-03-11T09:37:30.153Z,51.01
2023-03-11T09:47:38.015Z,49.80
2023-03-11T09:57:46.258Z,49.61
2023-03-11T10:07:53.777Z,50.29
2023-03-11T10:18:11.753Z,49.86
2023-03-11T10:28:15.546Z,49.88
2023-03-11T10:38:20.901Z,48.08
2023-03-11T10:48:23.455Z,48.86
2023-03-11T10:58:28.423Z,47.94
2023-03-11T11:08:31.095Z,45.29
2023-03-11T11:18:35.587Z,45.61
2023-03-11T11:28:38.245Z,42.90
2023-03-11T11:38:42.229Z,41.48
2023-03-11T11:48:48.319Z,39.66
2023-03-11T11:58:52.905Z,38.84
2023-03-11T12:09:01.620Z,38.25
2023-03-11T12:19:11.348Z,37.07
2023-03-11T12:29:21.468Z,37.03
2023-03-11T12:39:28.834Z,34.89
2023-03-11T12:49:32.023Z,33.72
2023-03-11T12:59:56.794Z,33.36
2023-03-11T13:10:04.319Z,35.02
2023-03-11T13:20:29.811Z,33.58
2023-03-11T13:30:36.532Z,29.40
2023-03-11T13:40:40.686Z,31.98
2023-03-11T13:50:48.024Z,32.13
2023-03-11T14:00:51.742Z,29.42
2023-03-11T14:10:56.298Z,28.26
2023-03-11T14:20:59.132Z,29.99
2023-03-11T14:31:03.761Z,30.96
2023-03-11T14:41:07.508Z,30.44
2023-03-11T14:51:13.225Z,31.13
2023-03-11T15:01:18.690Z,33.29
2023-03-11T15:11:25.298Z,34.77
2023-03-11T15:21:28.233Z,35.71
2023-03-11T15:31:33.632Z,35.11
2023-03-11T15:41:36.117Z,36.17
2023-03-11T15:51:40.947Z,37.88
2023-03-11T16:01:43.458Z,38.31
2023-03-11T16:11:47.253Z,39.31
2023-03-11T16:21:50.570Z,39.84
2023-03-11T16:31:55.339Z,41.57
2023-03-11T16:41:57.888Z,44.73
2023-03-11T16:52:01.780Z,43.79
2023-03-11T17:02:04.362Z,45.61
2023-03-11T17:12:08.968Z,46.87
2023-03-11T17:22:11.453Z,47.73
2023-03-11T17:32:17.578Z,48.79
2023-03-11T17:42:20.169Z,50.02
2023-03-11T17:52:23.959Z,49.10
2023-03-11T18:02:26.398Z,50.01
2023-03-11T18:12:30.235Z,50.07
2023-03-11T18:22:35.202Z,50.10
2023-03-11T18:32:39.243Z,51.23
2023-03-11T18:42:41.681Z,51.40
2023-03-11T18:52:45.526Z,51.14
2023-03-11T19:02:50.811Z,51.11
2023-03-11T19:12:54.694Z,51.45
2023-03-11T19:22:57.203Z,51.09
2023-03-11T19:33:01.196Z,51.22
2023-03-11T19:43:04.796Z,51.99
2023-03-11T19:53:09.814Z,52.55
2023-03-11T20:03:12.908Z,53.03
2023-03-11T20:13:17.857Z,52.86
2023-03-11T20:23:20.786Z,53.26
2023-03-11T20:33:24.636Z,53.42
2023-03-11T20:43:27.341Z,54.12
2023-03-11T20:53:31.650Z,55.77
2023-03-11T21:03:34.312Z,55.37
2023-03-11T21:13:38.290Z,54.89
2023-03-11T21:23:41.274Z,55.63
2023-03-11T21:33:45.636Z,55.90
2023-03-11T21:43:49.960Z,56.50
2023-03-11T21:53:53.980Z,57.11
2023-03-11T22:03:56.712Z,57.10
2023-03-11T22:14:01.501Z,57.86
2023-03-11T22:24:05.294Z,57.24
2023-03-11T22:34:09.148Z,57.96
2023-03-11T22:44:11.689Z,58.57
2023-03-11T22:54:15.635Z,58.58
2023-03-11T23:04:19.361Z,58.83
2023-03-11T23:14:30.672Z,59.05
2023-03-11T23:24:36.380Z,59.35
2023-03-11T23:34:40.177Z,60.55
2023-03-11T23:44:42.698Z,59.02
2023-03-11T23:54:46.469Z,58.83
